| time (UTC) | temp C | wind direction | speed KPH | gust KPH | rain 1hr cm | rain 24hr cm | rain mn cm | humidity % | barometer mb |
| 20260502233702 | 18 | 294 | 9.7 | 11.3 | 0.00 | 0.00 | 0.00 | 27 | 1015.8 |
| 20260502233159 | 18 | 341 | 11.3 | 12.9 | 0.00 | 0.00 | 0.00 | 28 | 1015.7 |
| 20260502232655 | 18 | 8 | 12.9 | 12.9 | 0.00 | 0.00 | 0.00 | 27 | 1015.7 |
| 20260502232153 | 18 | 70 | 12.9 | 14.5 | 0.00 | 0.00 | 0.00 | 27 | 1015.9 |
| 20260502231649 | 18 | 42 | 12.9 | 12.9 | 0.00 | 0.00 | 0.00 | 27 | 1016.2 |
| 20260502231147 | 18 | 21 | 4.8 | 4.8 | 0.00 | 0.00 | 0.00 | 28 | 1016.2 |
| 20260502230645 | 19 | 269 | 9.7 | 11.3 | 0.00 | 0.00 | 0.00 | 26 | 1016.2 |
| 20260502230144 | 19 | 252 | 8.0 | 9.7 | 0.00 | 0.00 | 0.00 | 25 | 1015.9 |
| 20260502225639 | 20 | 291 | 4.8 | 4.8 | 0.00 | 0.00 | 0.00 | 25 | 1016.2 |
| 20260502225137 | 18 | 316 | 0.0 | 0.0 | 0.00 | 0.00 | 0.00 | 26 | 1016.2 |
| 20260502224632 | 18 | 289 | 11.3 | 12.9 | 0.00 | 0.00 | 0.00 | 27 | 1016.3 |
| 20260502224129 | 19 | 304 | 14.5 | 17.7 | 0.00 | 0.00 | 0.00 | 27 | 1016.5 |
| 20260502223627 | 20 | 333 | 4.8 | 8.0 | 0.00 | 0.00 | 0.00 | 27 | 1016.5 |
| 20260502223125 | 20 | 8 | 1.6 | 3.2 | 0.00 | 0.00 | 0.00 | 25 | 1016.4 |
| 20260502222622 | 18 | 353 | 4.8 | 4.8 | 0.00 | 0.00 | 0.00 | 26 | 1016.8 |
| 20260502222119 | 18 | 270 | 4.8 | 4.8 | 0.00 | 0.00 | 0.00 | 28 | 1016.6 |
| 20260502221614 | 18 | 289 | 11.3 | 12.9 | 0.00 | 0.00 | 0.00 | 29 | 1016.7 |
| 20260502221112 | 18 | 290 | 14.5 | 14.5 | 0.00 | 0.00 | 0.00 | 29 | 1016.6 |
| 20260502220608 | 18 | 273 | 9.7 | 11.3 | 0.00 | 0.00 | 0.00 | 29 | 1016.6 |
| 20260502220104 | 18 | 316 | 9.7 | 11.3 | 0.00 | 0.00 | 0.00 | 28 | 1016.7 |
| 20260502215602 | 18 | 310 | 12.9 | 14.5 | 0.00 | 0.00 | 0.00 | 27 | 1016.7 |
| 20260502215058 | 18 | 349 | 4.8 | 4.8 | 0.00 | 0.00 | 0.00 | 30 | 1016.9 |
| 20260502214555 | 18 | 41 | 1.6 | 1.6 | 0.00 | 0.00 | 0.00 | 28 | 1017.1 |
| 20260502214053 | 18 | 325 | 8.0 | 9.7 | 0.00 | 0.00 | 0.00 | 29 | 1017.4 |
| 20260502213549 | 18 | 271 | 9.7 | 11.3 | 0.00 | 0.00 | 0.00 | 27 | 1016.9 |
| 20260502213047 | 18 | 274 | 11.3 | 12.9 | 0.00 | 0.00 | 0.00 | 28 | 1017.3 |
| 20260502212546 | 18 | 302 | 4.8 | 4.8 | 0.00 | 0.00 | 0.00 | 31 | 1017.4 |
| 20260502212043 | 18 | 13 | 6.4 | 9.7 | 0.00 | 0.00 | 0.00 | 29 | 1017.2 |
| 20260502211538 | 18 | 35 | 4.8 | 4.8 | 0.00 | 0.00 | 0.00 | 30 | 1016.9 |
| 20260502211036 | 18 | 298 | 6.4 | 8.0 | 0.00 | 0.00 | 0.00 | 29 | 1017.3 |
| 20260502210533 | 19 | 269 | 17.7 | 20.9 | 0.00 | 0.00 | 0.00 | 30 | 1017.3 |
| 20260502210030 | 18 | 330 | 4.8 | 4.8 | 0.00 | 0.00 | 0.00 | 30 | 1017.5 |
| 20260502205526 | 17 | 293 | 14.5 | 17.7 | 0.00 | 0.00 | 0.00 | 32 | 1017.3 |
| 20260502205024 | 18 | 263 | 11.3 | 14.5 | 0.00 | 0.00 | 0.00 | 29 | 1017.6 |
| 20260502204521 | 18 | 297 | 14.5 | 16.1 | 0.00 | 0.00 | 0.00 | 30 | 1017.5 |
| 20260502204018 | 18 | 265 | 11.3 | 14.5 | 0.00 | 0.00 | 0.00 | 32 | 1017.5 |
| 20260502203515 | 18 | 107 | 6.4 | 8.0 | 0.00 | 0.00 | 0.00 | 31 | 1017.8 |
| 20260502203012 | 18 | 160 | 3.2 | 3.2 | 0.00 | 0.00 | 0.00 | 34 | 1017.7 |
| 20260502202508 | 17 | 268 | 9.7 | 11.3 | 0.00 | 0.00 | 0.00 | 33 | 1017.6 |
| 20260502202007 | 17 | 189 | 4.8 | 4.8 | 0.00 | 0.00 | 0.00 | 32 | 1017.7 |
| 20260502201502 | 17 | 74 | 1.6 | 1.6 | 0.00 | 0.00 | 0.00 | 33 | 1017.8 |
| 20260502200959 | 17 | 67 | 6.4 | 8.0 | 0.00 | 0.00 | 0.00 | 34 | 1017.6 |
| 20260502200455 | 17 | 31 | 4.8 | 4.8 | 0.00 | 0.00 | 0.00 | 35 | 1017.9 |
| 20260502195953 | 17 | 44 | 1.6 | 1.6 | 0.00 | 0.00 | 0.00 | 34 | 1017.7 |
| 20260502195450 | 17 | 15 | 8.0 | 11.3 | 0.00 | 0.00 | 0.00 | 36 | 1017.7 |
| 20260502194946 | 17 | 323 | 4.8 | 4.8 | 0.00 | 0.00 | 0.00 | 37 | 1017.9 |
| 20260502194443 | 17 | 343 | 4.8 | 4.8 | 0.00 | 0.00 | 0.00 | 35 | 1017.9 |
| 20260502193938 | 17 | 1 | 4.8 | 8.0 | 0.00 | 0.00 | 0.00 | 35 | 1018.1 |
| 20260502193436 | 17 | 239 | 3.2 | 3.2 | 0.00 | 0.00 | 0.00 | 33 | 1018.2 |
| 20260502192932 | 18 | 228 | 4.8 | 8.0 | 0.00 | 0.00 | 0.00 | 36 | 1018.2 |
| 20260502192429 | 17 | 199 | 8.0 | 9.7 | 0.00 | 0.00 | 0.00 | 35 | 1018.3 |
| 20260502191925 | 17 | 237 | 3.2 | 3.2 | 0.00 | 0.00 | 0.00 | 37 | 1018.2 |
| 20260502191423 | 17 | 27 | 4.8 | 8.0 | 0.00 | 0.00 | 0.00 | 40 | 1018.4 |
| 20260502190921 | 17 | 59 | 6.4 | 11.3 | 0.00 | 0.00 | 0.00 | 37 | 1018.4 |
| 20260502190418 | 16 | 85 | 4.8 | 8.0 | 0.00 | 0.00 | 0.00 | 38 | 1018.4 |
| 20260502185914 | 17 | 226 | 0.0 | 0.0 | 0.00 | 0.00 | 0.00 | 35 | 1018.3 |
| 20260502185409 | 16 | 220 | 3.2 | 3.2 | 0.00 | 0.00 | 0.00 | 37 | 1018.6 |
| 20260502184907 | 16 | 28 | 0.0 | 1.6 | 0.00 | 0.00 | 0.00 | 36 | 1018.8 |
| 20260502184402 | 16 | 159 | 6.4 | 8.0 | 0.00 | 0.00 | 0.00 | 38 | 1018.7 |
| 20260502183859 | 16 | 229 | 4.8 | 8.0 | 0.00 | 0.00 | 0.00 | 37 | 1018.7 |
| 20260502183355 | 16 | 220 | 6.4 | 9.7 | 0.00 | 0.00 | 0.00 | 38 | 1018.7 |
| 20260502182850 | 16 | 93 | 3.2 | 3.2 | 0.00 | 0.00 | 0.00 | 39 | 1018.9 |
| 20260502182346 | 16 | 163 | 4.8 | 9.7 | 0.00 | 0.00 | 0.00 | 38 | 1018.7 |
| 20260502181843 | 16 | 74 | 8.0 | 11.3 | 0.00 | 0.00 | 0.00 | 38 | 1018.8 |
| 20260502181342 | 15 | 204 | 6.4 | 8.0 | 0.00 | 0.00 | 0.00 | 37 | 1018.9 |
| 20260502180839 | 16 | 272 | 0.0 | 1.6 | 0.00 | 0.00 | 0.00 | 40 | 1019.1 |
| 20260502180336 | 15 | 254 | 6.4 | 9.7 | 0.00 | 0.00 | 0.00 | 41 | 1019.2 |
| 20260502170255 | 13 | 228 | 6.4 | 8.0 | 0.00 | 0.00 | 0.00 | 43 | 1019.4 |
| 20260502164242 | 13 | 231 | 8.0 | 9.7 | 0.00 | 0.00 | 0.00 | 46 | 1019.5 |
| 20260502163738 | 13 | 257 | 6.4 | 8.0 | 0.00 | 0.00 | 0.00 | 45 | 1019.4 |
| 20260502163235 | 13 | 251 | 11.3 | 12.9 | 0.00 | 0.00 | 0.00 | 46 | 1019.4 |
| 20260502162732 | 13 | 294 | 4.8 | 4.8 | 0.00 | 0.00 | 0.00 | 49 | 1019.3 |
| 20260502162229 | 13 | 233 | 6.4 | 8.0 | 0.00 | 0.00 | 0.00 | 46 | 1019.3 |
| 20260502161726 | 13 | 198 | 6.4 | 9.7 | 0.00 | 0.00 | 0.00 | 47 | 1019.5 |
| 20260502161222 | 13 | 222 | 11.3 | 14.5 | 0.00 | 0.00 | 0.00 | 47 | 1019.5 |
| 20260502160720 | 12 | 254 | 8.0 | 9.7 | 0.00 | 0.00 | 0.00 | 48 | 1019.4 |
| 20260502160219 | 12 | 254 | 16.1 | 20.9 | 0.00 | 0.00 | 0.00 | 47 | 1019.4 |
| 20260502152132 | 11 | 241 | 8.0 | 9.7 | 0.00 | 0.00 | 0.00 | 47 | 1019.4 |
| 20260502151630 | 11 | 259 | 12.9 | 14.5 | 0.00 | 0.00 | 0.00 | 48 | 1019.5 |
| 20260502151127 | 11 | 211 | 8.0 | 11.3 | 0.00 | 0.00 | 0.00 | 49 | 1019.6 |
| 20260502150624 | 11 | 192 | 11.3 | 12.9 | 0.00 | 0.00 | 0.00 | 48 | 1019.7 |
| 20260502150120 | 11 | 236 | 6.4 | 9.7 | 0.00 | 0.00 | 0.00 | 48 | 1019.5 |
| 20260502130509 | 7 | 160 | 9.7 | 11.3 | 0.00 | 0.00 | 0.00 | 51 | 1019.2 |
| 20260502123451 | 8 | 225 | 9.7 | 12.9 | 0.00 | 0.00 | 0.00 | 49 | 1018.5 |
| 20260502122948 | 8 | 226 | 6.4 | 9.7 | 0.00 | 0.00 | 0.00 | 47 | 1018.5 |
| 20260502122445 | 8 | 244 | 8.0 | 9.7 | 0.00 | 0.00 | 0.00 | 46 | 1018.6 |
| 20260502121943 | 8 | 234 | 4.8 | 8.0 | 0.00 | 0.00 | 0.00 | 46 | 1018.4 |
| 20260502121440 | 8 | 217 | 1.6 | 1.6 | 0.00 | 0.00 | 0.00 | 45 | 1018.4 |
| 20260502120937 | 8 | 260 | 3.2 | 3.2 | 0.00 | 0.00 | 0.00 | 45 | 1018.4 |
| 20260502120433 | 8 | 253 | 3.2 | 3.2 | 0.00 | 0.00 | 0.00 | 42 | 1018.5 |
| 20260502115931 | 8 | 215 | 3.2 | 3.2 | 0.00 | 0.00 | 0.00 | 41 | 1018.3 |
| 20260502115428 | 8 | 143 | 0.0 | 0.0 | 0.00 | 0.00 | 0.00 | 41 | 1018.2 |
| 20260502114924 | 7 | 106 | 4.8 | 4.8 | 0.00 | 0.00 | 0.00 | 43 | 1017.8 |
| 20260502114421 | 7 | 73 | 4.8 | 4.8 | 0.00 | 0.00 | 0.00 | 44 | 1017.9 |
| 20260502113918 | 7 | 95 | 4.8 | 4.8 | 0.00 | 0.00 | 0.00 | 45 | 1017.8 |
| 20260502113416 | 8 | 220 | 1.6 | 1.6 | 0.00 | 0.00 | 0.00 | 43 | 1017.8 |
| 20260502112914 | 8 | 189 | 8.0 | 9.7 | 0.00 | 0.00 | 0.00 | 39 | 1017.4 |
| 20260502112411 | 7 | 74 | 3.2 | 3.2 | 0.00 | 0.00 | 0.00 | 45 | 1017.2 |
| 20260502111909 | 8 | 220 | 1.6 | 1.6 | 0.00 | 0.00 | 0.00 | 45 | 1017.5 |
| 20260502111406 | 7 | 158 | 6.4 | 9.7 | 0.00 | 0.00 | 0.00 | 43 | 1017.2 |
| 20260502110903 | 9 | 254 | 4.8 | 4.8 | 0.00 | 0.00 | 0.00 | 47 | 1017.3 |
| 20260502110401 | 8 | 162 | 6.4 | 8.0 | 0.00 | 0.00 | 0.00 | 40 | 1016.9 |
| 20260502105858 | 7 | 67 | 3.2 | 3.2 | 0.00 | 0.00 | 0.00 | 47 | 1017.2 |
| 20260502105355 | 7 | 36 | 3.2 | 3.2 | 0.00 | 0.00 | 0.00 | 47 | 1017.1 |
| 20260502104853 | 5 | 120 | 1.6 | 1.6 | 0.00 | 0.00 | 0.00 | 48 | 1017.1 |
| 20260502104350 | 6 | 98 | 1.6 | 3.2 | 0.00 | 0.00 | 0.00 | 50 | 1017.2 |
| 20260502103847 | 11 | 54 | 1.6 | 3.2 | 0.00 | 0.00 | 0.00 | 37 | 1017.1 |
| 20260502103344 | 11 | 166 | 6.4 | 9.7 | 0.00 | 0.00 | 0.00 | 32 | 1016.7 |
| 20260502102841 | 9 | 187 | 4.8 | 4.8 | 0.00 | 0.00 | 0.00 | 36 | 1016.8 |
| 20260502102338 | 8 | 205 | 0.0 | 0.0 | 0.00 | 0.00 | 0.00 | 41 | 1016.8 |
| 20260502101835 | 8 | 199 | 1.6 | 1.6 | 0.00 | 0.00 | 0.00 | 40 | 1017.2 |
| 20260502101334 | 8 | 200 | 1.6 | 3.2 | 0.00 | 0.00 | 0.00 | 42 | 1016.9 |
| 20260502100832 | 8 | 45 | 1.6 | 1.6 | 0.00 | 0.00 | 0.00 | 42 | 1016.9 |
| 20260502100331 | 7 | 80 | 3.2 | 3.2 | 0.00 | 0.00 | 0.00 | 45 | 1016.8 |
| 20260502091304 | 10 | 148 | 16.1 | 20.9 | 0.00 | 0.00 | 0.00 | 34 | 1016.4 |
| 20260502090802 | 11 | 142 | 17.7 | 17.7 | 0.00 | 0.00 | 0.00 | 35 | 1016.2 |
| 20260502090258 | 11 | 148 | 19.3 | 20.9 | 0.00 | 0.00 | 0.00 | 35 | 1015.9 |
| 20260502071158 | 12 | 133 | 12.9 | 16.1 | 0.00 | 0.00 | 0.00 | 30 | 1016.2 |
| 20260502070657 | 13 | 137 | 12.9 | 14.5 | 0.00 | 0.00 | 0.00 | 29 | 1016.1 |
| 20260502070155 | 12 | 144 | 12.9 | 14.5 | 0.00 | 0.00 | 0.00 | 30 | 1016.2 |
| 20260502065653 | 12 | 148 | 11.3 | 11.3 | 0.00 | 0.00 | 0.00 | 31 | 1016.1 |
| 20260502065150 | 13 | 160 | 11.3 | 12.9 | 0.00 | 0.00 | 0.00 | 31 | 1016.2 |
| 20260502064649 | 12 | 131 | 12.9 | 14.5 | 0.00 | 0.00 | 0.00 | 28 | 1016.1 |
| 20260502064145 | 11 | 144 | 14.5 | 16.1 | 0.00 | 0.00 | 0.00 | 33 | 1016.2 |
| 20260502063643 | 12 | 154 | 9.7 | 11.3 | 0.00 | 0.00 | 0.00 | 31 | 1016.2 |
| 20260502063141 | 12 | 169 | 11.3 | 12.9 | 0.00 | 0.00 | 0.00 | 30 | 1016.2 |
| 20260502062637 | 12 | 144 | 12.9 | 12.9 | 0.00 | 0.00 | 0.00 | 31 | 1016.2 |
| 20260502062135 | 12 | 157 | 11.3 | 12.9 | 0.00 | 0.00 | 0.00 | 32 | 1016.1 |
| 20260502061633 | 12 | 183 | 11.3 | 11.3 | 0.00 | 0.00 | 0.00 | 31 | 1016.1 |
| 20260502061131 | 12 | 162 | 11.3 | 12.9 | 0.00 | 0.00 | 0.00 | 32 | 1016.1 |
| 20260502060630 | 12 | 163 | 9.7 | 12.9 | 0.00 | 0.00 | 0.00 | 31 | 1016.1 |
| 20260502060127 | 13 | 158 | 11.3 | 12.9 | 0.00 | 0.00 | 0.00 | 29 | 1015.9 |
| 20260502055625 | 13 | 175 | 8.0 | 9.7 | 0.00 | 0.00 | 0.00 | 28 | 1015.9 |
| 20260502055123 | 13 | 222 | 8.0 | 9.7 | 0.00 | 0.00 | 0.00 | 27 | 1016.2 |
| 20260502054622 | 15 | 219 | 6.4 | 8.0 | 0.00 | 0.00 | 0.00 | 27 | 1015.7 |
| 20260502054119 | 14 | 193 | 8.0 | 11.3 | 0.00 | 0.00 | 0.00 | 26 | 1015.9 |
| 20260502053616 | 15 | 227 | 8.0 | 11.3 | 0.00 | 0.00 | 0.00 | 26 | 1015.9 |
| 20260502053113 | 15 | 189 | 11.3 | 14.5 | 0.00 | 0.00 | 0.00 | 25 | 1016.2 |
| 20260502052612 | 15 | 207 | 12.9 | 16.1 | 0.00 | 0.00 | 0.00 | 25 | 1015.9 |
| 20260502052110 | 15 | 232 | 11.3 | 16.1 | 0.00 | 0.00 | 0.00 | 27 | 1015.7 |
| 20260502051607 | 15 | 180 | 12.9 | 14.5 | 0.00 | 0.00 | 0.00 | 26 | 1015.9 |
| 20260502051105 | 15 | 210 | 12.9 | 14.5 | 0.00 | 0.00 | 0.00 | 27 | 1015.8 |
| 20260502050601 | 14 | 198 | 9.7 | 12.9 | 0.00 | 0.00 | 0.00 | 28 | 1015.7 |
| 20260502050058 | 13 | 134 | 17.7 | 20.9 | 0.00 | 0.00 | 0.00 | 34 | 1015.7 |
| 20260502045554 | 13 | 126 | 22.5 | 25.7 | 0.00 | 0.00 | 0.00 | 33 | 1015.5 |
| 20260502045052 | 13 | 130 | 24.1 | 27.4 | 0.00 | 0.00 | 0.00 | 33 | 1015.6 |
| 20260502044548 | 13 | 129 | 22.5 | 25.7 | 0.00 | 0.00 | 0.00 | 33 | 1015.5 |
| 20260502044044 | 15 | 126 | 20.9 | 22.5 | 0.00 | 0.00 | 0.00 | 30 | 1015.5 |
| 20260502043542 | 15 | 129 | 25.7 | 27.4 | 0.00 | 0.00 | 0.00 | 30 | 1015.4 |
| 20260502043038 | 15 | 117 | 24.1 | 25.7 | 0.00 | 0.00 | 0.00 | 28 | 1015.3 |
| 20260502042533 | 16 | 127 | 22.5 | 24.1 | 0.00 | 0.00 | 0.00 | 27 | 1015.6 |
| 20260502042031 | 16 | 125 | 20.9 | 22.5 | 0.00 | 0.00 | 0.00 | 25 | 1015.4 |
| 20260502041529 | 16 | 132 | 20.9 | 22.5 | 0.00 | 0.00 | 0.00 | 24 | 1015.3 |
| 20260502041026 | 16 | 146 | 17.7 | 17.7 | 0.00 | 0.00 | 0.00 | 24 | 1015.3 |
| 20260502040522 | 16 | 119 | 17.7 | 20.9 | 0.00 | 0.00 | 0.00 | 25 | 1015.3 |
| 20260502040020 | 16 | 155 | 16.1 | 17.7 | 0.00 | 0.00 | 0.00 | 25 | 1015.4 |
| 20260502035515 | 16 | 140 | 16.1 | 16.1 | 0.00 | 0.00 | 0.00 | 27 | 1015.3 |
| 20260502035013 | 15 | 146 | 14.5 | 16.1 | 0.00 | 0.00 | 0.00 | 27 | 1015.1 |
| 20260502034511 | 16 | 141 | 14.5 | 16.1 | 0.00 | 0.00 | 0.00 | 24 | 1015.1 |
| 20260502034009 | 16 | 133 | 12.9 | 14.5 | 0.00 | 0.00 | 0.00 | 25 | 1015.2 |
| 20260502033507 | 17 | 145 | 14.5 | 16.1 | 0.00 | 0.00 | 0.00 | 24 | 1015.1 |
| 20260502033004 | 16 | 136 | 12.9 | 12.9 | 0.00 | 0.00 | 0.00 | 26 | 1014.9 |
| 20260502032459 | 17 | 134 | 11.3 | 11.3 | 0.00 | 0.00 | 0.00 | 25 | 1015.3 |
| 20260502031956 | 17 | 130 | 12.9 | 12.9 | 0.00 | 0.00 | 0.00 | 25 | 1014.9 |
| 20260502031455 | 17 | 131 | 14.5 | 14.5 | 0.00 | 0.00 | 0.00 | 24 | 1014.8 |
| 20260502030953 | 16 | 132 | 12.9 | 14.5 | 0.00 | 0.00 | 0.00 | 25 | 1014.9 |
| 20260502030451 | 17 | 135 | 11.3 | 12.9 | 0.00 | 0.00 | 0.00 | 27 | 1014.8 |
| 20260502025948 | 17 | 117 | 12.9 | 14.5 | 0.00 | 0.00 | 0.00 | 24 | 1014.7 |
| 20260502025445 | 16 | 131 | 14.5 | 16.1 | 0.00 | 0.00 | 0.00 | 27 | 1014.8 |
| 20260502024943 | 16 | 147 | 11.3 | 11.3 | 0.00 | 0.00 | 0.00 | 30 | 1014.7 |
| 20260502024441 | 16 | 150 | 11.3 | 11.3 | 0.00 | 0.00 | 0.00 | 28 | 1014.8 |
| 20260502023939 | 16 | 148 | 11.3 | 11.3 | 0.00 | 0.00 | 0.00 | 28 | 1014.5 |
| 20260502023436 | 16 | 152 | 9.7 | 11.3 | 0.00 | 0.00 | 0.00 | 28 | 1014.7 |
| 20260502022933 | 16 | 125 | 9.7 | 12.9 | 0.00 | 0.00 | 0.00 | 28 | 1014.8 |
| 20260502022429 | 17 | 148 | 9.7 | 9.7 | 0.00 | 0.00 | 0.00 | 30 | 1014.7 |
| 20260502021927 | 17 | 155 | 9.7 | 9.7 | 0.00 | 0.00 | 0.00 | 29 | 1014.8 |
| 20260502021424 | 17 | 144 | 9.7 | 9.7 | 0.00 | 0.00 | 0.00 | 27 | 1014.7 |
| 20260502020921 | 18 | 153 | 9.7 | 9.7 | 0.00 | 0.00 | 0.00 | 25 | 1014.8 |
| 20260502020419 | 18 | 154 | 9.7 | 9.7 | 0.00 | 0.00 | 0.00 | 26 | 1014.7 |
| 20260502015915 | 18 | 144 | 8.0 | 9.7 | 0.00 | 0.00 | 0.00 | 27 | 1014.7 |
| 20260502015413 | 19 | 144 | 8.0 | 9.7 | 0.00 | 0.00 | 0.00 | 26 | 1014.7 |
| 20260502014910 | 20 | 163 | 6.4 | 8.0 | 0.00 | 0.00 | 0.00 | 23 | 1014.8 |
| 20260502014406 | 20 | 159 | 8.0 | 8.0 | 0.00 | 0.00 | 0.00 | 24 | 1014.5 |
| 20260502013903 | 20 | 137 | 4.8 | 4.8 | 0.00 | 0.00 | 0.00 | 22 | 1014.7 |
| 20260502013358 | 20 | 135 | 6.4 | 8.0 | 0.00 | 0.00 | 0.00 | 22 | 1014.8 |
| 20260502012855 | 20 | 160 | 4.8 | 4.8 | 0.00 | 0.00 | 0.00 | 22 | 1014.8 |
| 20260502012353 | 20 | 158 | 6.4 | 8.0 | 0.00 | 0.00 | 0.00 | 21 | 1015.1 |
| 20260502011850 | 21 | 172 | 4.8 | 8.0 | 0.00 | 0.00 | 0.00 | 20 | 1015.1 |
| 20260502011346 | 21 | 207 | 6.4 | 8.0 | 0.00 | 0.00 | 0.00 | 19 | 1015.1 |
| 20260502010843 | 21 | 234 | 3.2 | 3.2 | 0.00 | 0.00 | 0.00 | 20 | 1015.2 |
| 20260502010340 | 21 | 230 | 4.8 | 4.8 | 0.00 | 0.00 | 0.00 | 20 | 1014.8 |
| 20260502005837 | 21 | 248 | 8.0 | 11.3 | 0.00 | 0.00 | 0.00 | 18 | 1014.8 |
| 20260502005335 | 21 | 161 | 11.3 | 12.9 | 0.00 | 0.00 | 0.00 | 17 | 1014.8 |
| 20260502004832 | 21 | 161 | 8.0 | 9.7 | 0.00 | 0.00 | 0.00 | 17 | 1014.9 |
| 20260502004327 | 22 | 216 | 6.4 | 9.7 | 0.00 | 0.00 | 0.00 | 16 | 1015.3 |
| 20260502003826 | 22 | 228 | 9.7 | 11.3 | 0.00 | 0.00 | 0.00 | 17 | 1015.2 |
| 20260502003323 | 22 | 228 | 8.0 | 11.3 | 0.00 | 0.00 | 0.00 | 15 | 1015.4 |
| 20260502002819 | 21 | 241 | 8.0 | 9.7 | 0.00 | 0.00 | 0.00 | 15 | 1014.9 |
| 20260502002316 | 22 | 249 | 14.5 | 16.1 | 0.00 | 0.00 | 0.00 | 15 | 1015.5 |
| 20260502001813 | 22 | 224 | 6.4 | 8.0 | 0.00 | 0.00 | 0.00 | 15 | 1015.3 |
| 20260502001311 | 22 | 248 | 9.7 | 11.3 | 0.00 | 0.00 | 0.00 | 15 | 1015.2 |
| 20260502000808 | 22 | 248 | 16.1 | 20.9 | 0.00 | 0.00 | 0.00 | 14 | 1015.3 |
| 20260502000306 | 21 | 217 | 4.8 | 4.8 | 0.00 | 0.00 | 0.00 | 17 | 1015.2 |
| 20260501235802 | 21 | 173 | 11.3 | 12.9 | 0.00 | 0.00 | 0.00 | 14 | 1015.4 |
| 20260501235258 | 22 | 201 | 11.3 | 14.5 | 0.00 | 0.00 | 0.00 | 16 | 1015.5 |
| 20260501234753 | 22 | 237 | 11.3 | 12.9 | 0.00 | 0.00 | 0.00 | 16 | 1015.2 |
| 20260501234251 | 22 | 207 | 11.3 | 14.5 | 0.00 | 0.00 | 0.00 | 16 | 1015.5 |